createdAt,value
2022-12-14T00:00:37.355Z,989.03
2022-12-14T00:01:37.335Z,989.00
2022-12-14T00:02:37.443Z,989.00
2022-12-14T00:03:37.373Z,988.98
2022-12-14T00:04:37.323Z,989.06
2022-12-14T00:05:37.286Z,989.01
2022-12-14T00:06:37.279Z,989.04
2022-12-14T00:07:37.288Z,989.00
2022-12-14T00:08:41.662Z,989.02
2022-12-14T00:09:37.288Z,989.00
2022-12-14T00:10:37.246Z,989.01
2022-12-14T00:11:37.214Z,988.96
2022-12-14T00:12:37.212Z,989.00
2022-12-14T00:13:37.197Z,988.94
2022-12-14T00:14:37.262Z,988.94
2022-12-14T00:15:37.275Z,988.95
2022-12-14T00:16:37.174Z,988.92
2022-12-14T00:17:37.154Z,988.93
2022-12-14T00:18:37.150Z,988.89
2022-12-14T00:19:37.202Z,988.95
2022-12-14T00:20:37.138Z,988.91
2022-12-14T00:21:37.114Z,988.89
2022-12-14T00:22:37.123Z,988.88
2022-12-14T00:23:39.115Z,988.89
2022-12-14T00:24:37.178Z,988.84
2022-12-14T00:25:37.069Z,988.83
2022-12-14T00:26:37.062Z,988.84
2022-12-14T00:27:37.049Z,988.77
2022-12-14T00:28:37.056Z,988.78
2022-12-14T00:29:37.101Z,988.74
2022-12-14T00:30:37.041Z,988.75
2022-12-14T00:31:37.153Z,988.75
2022-12-14T00:32:37.013Z,988.79
2022-12-14T00:33:36.987Z,988.78
2022-12-14T00:34:37.064Z,988.77
2022-12-14T00:35:36.965Z,988.75
2022-12-14T00:36:36.977Z,988.74
2022-12-14T00:37:36.948Z,988.71
2022-12-14T00:38:36.920Z,988.63
2022-12-14T00:39:37.045Z,988.58
2022-12-14T00:40:36.905Z,988.52
2022-12-14T00:41:36.916Z,988.55
2022-12-14T00:42:36.883Z,988.53
2022-12-14T00:43:36.882Z,988.49
2022-12-14T00:44:36.863Z,988.49
2022-12-14T00:45:36.854Z,988.55
2022-12-14T00:46:36.912Z,988.52
2022-12-14T00:47:40.703Z,988.55
2022-12-14T00:48:36.828Z,988.52
2022-12-14T00:49:36.816Z,988.53
2022-12-14T00:50:36.796Z,988.54
2022-12-14T00:51:36.808Z,988.54
2022-12-14T00:52:36.773Z,988.57
2022-12-14T00:53:36.778Z,988.50
2022-12-14T00:54:36.756Z,988.53
2022-12-14T00:55:36.767Z,988.56
2022-12-14T00:56:36.754Z,988.53
2022-12-14T00:57:36.721Z,988.55
2022-12-14T00:58:36.725Z,988.49
2022-12-14T00:59:36.814Z,988.52
2022-12-14T01:00:36.723Z,988.47
2022-12-14T01:01:36.939Z,988.48
2022-12-14T01:02:36.695Z,988.50
2022-12-14T01:03:36.747Z,988.44
2022-12-14T01:04:36.647Z,988.47
2022-12-14T01:05:36.655Z,988.41
2022-12-14T01:06:36.703Z,988.38
2022-12-14T01:07:36.641Z,988.39
2022-12-14T01:08:36.604Z,988.46
2022-12-14T01:09:36.591Z,988.43
2022-12-14T01:10:36.583Z,988.49
2022-12-14T01:11:36.585Z,988.44
2022-12-14T01:12:36.581Z,988.49
2022-12-14T01:13:36.597Z,988.45
2022-12-14T01:14:36.538Z,988.47
2022-12-14T01:15:36.587Z,988.46
2022-12-14T01:16:37.407Z,988.50
2022-12-14T01:17:36.507Z,988.49
2022-12-14T01:18:36.498Z,988.41
2022-12-14T01:19:36.643Z,988.48
2022-12-14T01:20:36.484Z,988.42
2022-12-14T01:21:36.488Z,988.39
2022-12-14T01:22:36.448Z,988.40
2022-12-14T01:23:36.448Z,988.39
2022-12-14T01:24:36.428Z,988.38
2022-12-14T01:25:36.419Z,988.38
2022-12-14T01:26:36.418Z,988.39
2022-12-14T01:27:36.395Z,988.33
2022-12-14T01:28:36.388Z,988.36
2022-12-14T01:29:36.376Z,988.34
2022-12-14T01:30:36.365Z,988.32
2022-12-14T01:31:36.427Z,988.28
2022-12-14T01:32:36.360Z,988.27
2022-12-14T01:33:36.326Z,988.27
2022-12-14T01:34:36.316Z,988.24
2022-12-14T01:35:36.329Z,988.25
2022-12-14T01:36:36.320Z,988.19
2022-12-14T01:37:36.389Z,988.21
2022-12-14T01:38:36.286Z,988.21
2022-12-14T01:39:36.447Z,988.19
2022-12-14T01:40:36.362Z,988.18
2022-12-14T01:41:36.326Z,988.16
2022-12-14T01:42:36.241Z,988.13
2022-12-14T01:43:36.218Z,988.15
2022-12-14T01:44:36.222Z,988.09
2022-12-14T01:45:36.194Z,988.05
2022-12-14T01:46:36.313Z,988.06
2022-12-14T01:47:36.173Z,988.04
2022-12-14T01:48:36.231Z,988.02
2022-12-14T01:49:36.150Z,988.00
2022-12-14T01:50:36.250Z,987.97
2022-12-14T01:51:36.143Z,988.00
2022-12-14T01:52:36.211Z,988.04
2022-12-14T01:53:36.102Z,988.10
2022-12-14T01:54:36.153Z,988.11
2022-12-14T01:55:36.107Z,988.09
2022-12-14T01:56:36.266Z,988.08
2022-12-14T01:57:36.059Z,988.10
2022-12-14T01:58:36.178Z,988.04
2022-12-14T01:59:36.039Z,988.08
2022-12-14T02:00:36.179Z,988.04
2022-12-14T02:01:36.114Z,988.07
2022-12-14T02:02:36.496Z,988.05
2022-12-14T02:03:36.046Z,988.03
2022-12-14T02:04:35.986Z,988.07
2022-12-14T02:05:35.996Z,988.05
2022-12-14T02:06:35.967Z,988.00
2022-12-14T02:07:36.032Z,988.00
2022-12-14T02:08:35.945Z,987.98
2022-12-14T02:09:35.957Z,988.01
2022-12-14T02:10:35.925Z,987.99
2022-12-14T02:11:35.911Z,988.00
2022-12-14T02:12:35.937Z,987.99
2022-12-14T02:13:35.886Z,988.00
2022-12-14T02:14:35.875Z,987.96
2022-12-14T02:15:35.900Z,987.97
2022-12-14T02:16:35.918Z,987.93
2022-12-14T02:17:35.844Z,987.92
2022-12-14T02:18:35.836Z,987.89
2022-12-14T02:19:35.851Z,987.82
2022-12-14T02:20:35.804Z,987.77
2022-12-14T02:21:35.803Z,987.78
2022-12-14T02:22:35.803Z,987.79
2022-12-14T02:23:35.821Z,987.72
2022-12-14T02:24:35.803Z,987.77
2022-12-14T02:25:35.776Z,987.73
2022-12-14T02:26:35.773Z,987.80
2022-12-14T02:27:35.729Z,987.78
2022-12-14T02:28:35.760Z,987.73
2022-12-14T02:29:35.708Z,987.81
2022-12-14T02:30:35.699Z,987.80
2022-12-14T02:31:35.781Z,987.78
2022-12-14T02:32:35.678Z,987.79
2022-12-14T02:33:35.685Z,987.83
2022-12-14T02:34:35.665Z,987.81
2022-12-14T02:35:35.685Z,987.77
2022-12-14T02:36:35.632Z,987.81
2022-12-14T02:37:35.652Z,987.75
2022-12-14T02:38:35.640Z,987.74
2022-12-14T02:39:35.621Z,987.75
2022-12-14T02:40:35.593Z,987.77
2022-12-14T02:41:35.577Z,987.72
2022-12-14T02:42:35.565Z,987.69
2022-12-14T02:43:35.568Z,987.71
2022-12-14T02:44:35.597Z,987.75
2022-12-14T02:45:35.548Z,987.74
2022-12-14T02:46:35.540Z,987.79
2022-12-14T02:47:35.514Z,987.76
2022-12-14T02:48:35.519Z,987.75
2022-12-14T02:49:35.503Z,987.77
2022-12-14T02:50:35.534Z,987.74
2022-12-14T02:51:35.486Z,987.71
2022-12-14T02:52:35.501Z,987.71
2022-12-14T02:53:35.482Z,987.67
2022-12-14T02:54:35.449Z,987.68
2022-12-14T02:55:35.447Z,987.62
2022-12-14T02:56:35.420Z,987.61
2022-12-14T02:57:35.435Z,987.61
2022-12-14T02:58:35.401Z,987.54
2022-12-14T02:59:35.391Z,987.56
2022-12-14T03:00:35.445Z,987.58
2022-12-14T03:01:35.644Z,987.60
2022-12-14T03:02:35.516Z,987.58
2022-12-14T03:03:35.357Z,987.58
2022-12-14T03:04:35.338Z,987.57
2022-12-14T03:05:35.331Z,987.57
2022-12-14T03:06:35.339Z,987.50
2022-12-14T03:07:35.307Z,987.47
2022-12-14T03:08:35.294Z,987.50
2022-12-14T03:09:35.454Z,987.49
2022-12-14T03:10:35.284Z,987.49
2022-12-14T03:11:35.302Z,987.48
2022-12-14T03:12:35.263Z,987.46
2022-12-14T03:13:35.281Z,987.43
2022-12-14T03:14:35.233Z,987.46
2022-12-14T03:15:35.244Z,987.43
2022-12-14T03:16:35.365Z,987.44
2022-12-14T03:17:35.204Z,987.46
2022-12-14T03:18:35.195Z,987.41
2022-12-14T03:19:35.205Z,987.48
2022-12-14T03:20:35.173Z,987.46
2022-12-14T03:21:35.165Z,987.45
2022-12-14T03:22:35.151Z,987.39
2022-12-14T03:23:35.160Z,987.40
2022-12-14T03:24:35.167Z,987.31
2022-12-14T03:25:35.119Z,987.28
2022-12-14T03:26:35.120Z,987.24
2022-12-14T03:27:35.151Z,987.25
2022-12-14T03:28:35.087Z,987.27
2022-12-14T03:29:35.076Z,987.26
2022-12-14T03:30:58.772Z,987.26
2022-12-14T03:31:36.214Z,987.22
2022-12-14T03:32:35.047Z,987.22
2022-12-14T03:33:35.034Z,987.17
2022-12-14T03:34:35.023Z,987.16
2022-12-14T03:35:35.051Z,987.13
2022-12-14T03:36:35.056Z,987.05
2022-12-14T03:37:35.014Z,987.04
2022-12-14T03:38:35.026Z,987.07
2022-12-14T03:39:34.991Z,987.04
2022-12-14T03:40:35.001Z,987.01
2022-12-14T03:41:34.949Z,987.01
2022-12-14T03:42:34.952Z,987.00
2022-12-14T03:43:35.023Z,987.00
2022-12-14T03:44:39.067Z,987.03
2022-12-14T03:45:35.984Z,986.99
2022-12-14T03:46:34.909Z,987.02
2022-12-14T03:47:34.943Z,986.98
2022-12-14T03:48:34.893Z,987.03
2022-12-14T03:49:34.867Z,987.02
2022-12-14T03:50:34.880Z,987.03
2022-12-14T03:51:34.848Z,987.08
2022-12-14T03:52:34.832Z,987.00
2022-12-14T03:53:34.827Z,987.00
2022-12-14T03:54:34.822Z,987.01
2022-12-14T03:55:34.811Z,987.00
2022-12-14T03:56:34.824Z,986.99
2022-12-14T03:57:34.799Z,986.94
2022-12-14T03:58:34.794Z,986.94
2022-12-14T03:59:34.789Z,986.89
2022-12-14T04:00:34.788Z,986.91
2022-12-14T04:01:34.870Z,986.91
2022-12-14T04:02:39.192Z,986.88
2022-12-14T04:03:35.744Z,986.91
2022-12-14T04:04:34.704Z,986.92
2022-12-14T04:05:34.704Z,986.89
2022-12-14T04:06:34.693Z,986.94
2022-12-14T04:07:35.920Z,986.89
2022-12-14T04:08:34.683Z,986.86
2022-12-14T04:09:34.662Z,986.87
2022-12-14T04:10:34.667Z,986.86
2022-12-14T04:11:34.639Z,986.90
2022-12-14T04:12:34.621Z,986.84
2022-12-14T04:13:34.624Z,986.80
2022-12-14T04:14:34.603Z,986.76
2022-12-14T04:15:34.631Z,986.79
2022-12-14T04:16:34.630Z,986.78
2022-12-14T04:17:34.606Z,986.78
2022-12-14T04:18:34.595Z,986.70
2022-12-14T04:19:34.558Z,986.73
2022-12-14T04:20:34.558Z,986.69
2022-12-14T04:21:34.528Z,986.68
2022-12-14T04:22:34.536Z,986.67
2022-12-14T04:23:34.523Z,986.63
2022-12-14T04:24:34.494Z,986.67
2022-12-14T04:25:34.497Z,986.65
2022-12-14T04:26:34.490Z,986.62
2022-12-14T04:27:34.486Z,986.60
2022-12-14T04:28:34.481Z,986.59
2022-12-14T04:29:34.456Z,986.59
2022-12-14T04:30:34.454Z,986.58
2022-12-14T04:31:34.545Z,986.49
2022-12-14T04:32:34.478Z,986.43
2022-12-14T04:33:34.408Z,986.45
2022-12-14T04:34:34.395Z,986.41
2022-12-14T04:35:34.419Z,986.35
2022-12-14T04:36:34.383Z,986.36
2022-12-14T04:37:34.366Z,986.36
2022-12-14T04:38:34.341Z,986.31
2022-12-14T04:39:34.338Z,986.28
2022-12-14T04:40:34.357Z,986.32
2022-12-14T04:41:34.319Z,986.29
2022-12-14T04:42:34.887Z,986.32
2022-12-14T04:43:34.299Z,986.31
2022-12-14T04:44:34.321Z,986.34
2022-12-14T04:45:34.328Z,986.33
2022-12-14T04:46:40.214Z,986.33
2022-12-14T04:47:35.298Z,986.32
2022-12-14T04:48:34.248Z,986.34
2022-12-14T04:49:34.248Z,986.34
2022-12-14T04:50:34.248Z,986.32
2022-12-14T04:51:34.212Z,986.31
2022-12-14T04:52:34.226Z,986.34
2022-12-14T04:53:34.197Z,986.33
2022-12-14T04:54:34.176Z,986.32
2022-12-14T04:55:34.215Z,986.30
2022-12-14T04:56:34.152Z,986.25
2022-12-14T04:57:34.146Z,986.26
2022-12-14T04:58:34.169Z,986.24
2022-12-14T04:59:34.171Z,986.23
2022-12-14T05:00:34.161Z,986.26
2022-12-14T05:01:34.344Z,986.26
2022-12-14T05:02:34.185Z,986.28
2022-12-14T05:03:34.104Z,986.27
2022-12-14T05:04:34.077Z,986.24
2022-12-14T05:05:34.059Z,986.25
2022-12-14T05:06:34.179Z,986.17
2022-12-14T05:07:34.051Z,986.14
2022-12-14T05:08:34.024Z,986.17
2022-12-14T05:09:34.020Z,986.13
2022-12-14T05:10:34.019Z,986.20
2022-12-14T05:12:34.984Z,986.18
2022-12-14T05:13:34.006Z,986.15
2022-12-14T05:14:34.004Z,986.13
2022-12-14T05:15:33.948Z,986.09
2022-12-14T05:16:34.017Z,986.05
2022-12-14T05:17:33.954Z,986.14
2022-12-14T05:18:33.930Z,986.10
2022-12-14T05:19:33.940Z,986.10
2022-12-14T05:20:33.907Z,986.11
2022-12-14T05:21:33.894Z,986.09
2022-12-14T05:22:33.877Z,986.07
2022-12-14T05:23:33.885Z,986.07
2022-12-14T05:24:33.867Z,985.98
2022-12-14T05:25:33.845Z,986.01
2022-12-14T05:26:33.849Z,986.01
2022-12-14T05:27:33.830Z,985.97
2022-12-14T05:28:33.847Z,985.96
2022-12-14T05:29:33.811Z,985.92
2022-12-14T05:30:33.838Z,985.91
2022-12-14T05:31:33.779Z,985.86
2022-12-14T05:32:33.785Z,985.85
2022-12-14T05:33:33.776Z,985.92
2022-12-14T05:34:33.767Z,985.91
2022-12-14T05:35:33.766Z,985.89
2022-12-14T05:36:33.753Z,985.92
2022-12-14T05:37:33.716Z,985.89
2022-12-14T05:38:33.707Z,985.86
2022-12-14T05:39:33.708Z,985.87
2022-12-14T05:40:33.684Z,985.88
2022-12-14T05:41:33.700Z,985.86
2022-12-14T05:42:33.727Z,985.86
2022-12-14T05:43:33.651Z,985.87
2022-12-14T05:44:33.639Z,985.90
2022-12-14T05:45:33.650Z,985.88
2022-12-14T05:46:33.619Z,985.89
2022-12-14T05:47:33.620Z,985.91
2022-12-14T05:48:33.602Z,985.84
2022-12-14T05:49:33.584Z,985.88
2022-12-14T05:50:33.603Z,985.83
2022-12-14T05:51:33.597Z,985.85
2022-12-14T05:52:33.564Z,985.84
2022-12-14T05:53:33.544Z,985.77
2022-12-14T05:54:33.580Z,985.79
2022-12-14T05:55:33.521Z,985.78
2022-12-14T05:56:33.526Z,985.81
2022-12-14T05:57:33.526Z,985.77
2022-12-14T05:58:33.495Z,985.77
2022-12-14T05:59:33.489Z,985.78
2022-12-14T06:00:33.473Z,985.79
2022-12-14T06:01:33.497Z,985.76
2022-12-14T06:02:33.505Z,985.75
2022-12-14T06:03:33.464Z,985.71
2022-12-14T06:04:33.537Z,985.70
2022-12-14T06:05:33.437Z,985.69
2022-12-14T06:06:33.405Z,985.72
2022-12-14T06:07:33.429Z,985.68
2022-12-14T06:08:33.395Z,985.66
2022-12-14T06:09:33.372Z,985.67
2022-12-14T06:10:33.382Z,985.62
2022-12-14T06:11:33.886Z,985.59
2022-12-14T06:12:33.340Z,985.50
2022-12-14T06:13:33.333Z,985.56
2022-12-14T06:14:33.359Z,985.58
2022-12-14T06:15:34.231Z,985.59
2022-12-14T06:16:33.331Z,985.60
2022-12-14T06:17:33.284Z,985.57
2022-12-14T06:18:33.275Z,985.59
2022-12-14T06:19:33.284Z,985.53
2022-12-14T06:20:33.259Z,985.56
2022-12-14T06:21:33.264Z,985.56
2022-12-14T06:22:33.247Z,985.58
2022-12-14T06:23:33.239Z,985.60
2022-12-14T06:24:33.213Z,985.57
2022-12-14T06:25:33.196Z,985.54
2022-12-14T06:26:33.217Z,985.54
2022-12-14T06:27:33.180Z,985.51
2022-12-14T06:28:33.204Z,985.51
2022-12-14T06:29:33.161Z,985.49
2022-12-14T06:30:33.154Z,985.45
2022-12-14T06:31:33.177Z,985.37
2022-12-14T06:32:33.125Z,985.40
2022-12-14T06:33:33.115Z,985.36
2022-12-14T06:34:38.522Z,985.37
2022-12-14T06:35:34.097Z,985.34
2022-12-14T06:36:33.087Z,985.35
2022-12-14T06:37:33.072Z,985.29
2022-12-14T06:38:33.088Z,985.33
2022-12-14T06:39:33.080Z,985.31
2022-12-14T06:40:33.082Z,985.30
2022-12-14T06:41:33.028Z,985.32
2022-12-14T06:42:33.022Z,985.29
2022-12-14T06:43:33.035Z,985.32
2022-12-14T06:44:32.992Z,985.34
2022-12-14T06:45:33.008Z,985.28
2022-12-14T06:46:33.038Z,985.30
2022-12-14T06:47:32.966Z,985.26
2022-12-14T06:48:32.983Z,985.25
2022-12-14T06:49:32.949Z,985.21
2022-12-14T06:50:32.936Z,985.21
2022-12-14T06:51:32.942Z,985.19
2022-12-14T06:52:32.919Z,985.18
2022-12-14T06:53:32.903Z,985.20
2022-12-14T06:54:32.919Z,985.15
2022-12-14T06:55:32.907Z,985.12
2022-12-14T06:56:32.890Z,985.12
2022-12-14T06:57:32.870Z,985.10
2022-12-14T06:58:32.848Z,985.12
2022-12-14T06:59:32.840Z,985.15
2022-12-14T07:00:32.859Z,985.12
2022-12-14T07:01:32.997Z,985.07
2022-12-14T07:02:33.016Z,985.04
2022-12-14T07:03:33.068Z,985.01
2022-12-14T07:04:32.819Z,985.00
2022-12-14T07:05:32.775Z,985.03
2022-12-14T07:06:32.788Z,984.99
2022-12-14T07:07:32.771Z,985.01
2022-12-14T07:08:32.751Z,985.01
2022-12-14T07:09:32.734Z,984.89
2022-12-14T07:10:32.752Z,984.89
2022-12-14T07:11:32.797Z,984.95
2022-12-14T07:12:32.701Z,984.96
2022-12-14T07:13:32.697Z,984.99
2022-12-14T07:14:32.687Z,984.90
2022-12-14T07:15:32.724Z,984.88
2022-12-14T07:16:32.704Z,984.88
2022-12-14T07:17:32.658Z,984.86
2022-12-14T07:18:32.634Z,984.89
2022-12-14T07:19:32.644Z,984.88
2022-12-14T07:20:32.622Z,984.87
2022-12-14T07:21:32.616Z,984.91
2022-12-14T07:22:32.596Z,984.86
2022-12-14T07:23:32.958Z,984.82
2022-12-14T07:24:32.577Z,984.75
2022-12-14T07:25:32.618Z,984.73
2022-12-14T07:26:32.555Z,984.75
2022-12-14T07:27:32.569Z,984.75
2022-12-14T07:28:32.536Z,984.75
2022-12-14T07:29:34.852Z,984.74
2022-12-14T07:30:32.515Z,984.73
2022-12-14T07:31:32.526Z,984.71
2022-12-14T07:32:32.482Z,984.70
2022-12-14T07:33:32.473Z,984.68
2022-12-14T07:34:32.491Z,984.68
2022-12-14T07:35:32.455Z,984.65
2022-12-14T07:36:32.459Z,984.70
2022-12-14T07:37:32.434Z,984.65
2022-12-14T07:38:32.430Z,984.68
2022-12-14T07:39:32.437Z,984.67
2022-12-14T07:40:32.399Z,984.72
2022-12-14T07:41:32.432Z,984.70
2022-12-14T07:42:32.392Z,984.70
2022-12-14T07:43:32.400Z,984.70
2022-12-14T07:44:32.398Z,984.67
2022-12-14T07:45:32.369Z,984.74
2022-12-14T07:46:32.719Z,984.66
2022-12-14T07:47:32.326Z,984.68
2022-12-14T07:48:32.326Z,984.65
2022-12-14T07:49:32.311Z,984.61
2022-12-14T07:50:32.300Z,984.65
2022-12-14T07:51:32.326Z,984.64
2022-12-14T07:52:37.260Z,984.60
2022-12-14T07:53:33.269Z,984.66
2022-12-14T07:54:32.277Z,984.68
2022-12-14T07:55:32.247Z,984.67
2022-12-14T07:56:32.271Z,984.60
2022-12-14T07:57:32.243Z,984.56
2022-12-14T07:58:32.225Z,984.53
2022-12-14T07:59:32.245Z,984.53
2022-12-14T08:00:32.202Z,984.55
2022-12-14T08:01:32.394Z,984.46
2022-12-14T08:02:32.302Z,984.44
2022-12-14T08:03:32.449Z,984.43
2022-12-14T08:04:32.190Z,984.45
2022-12-14T08:05:32.142Z,984.42
2022-12-14T08:06:32.155Z,984.42
2022-12-14T08:07:32.123Z,984.44
2022-12-14T08:08:32.113Z,984.44
2022-12-14T08:09:32.103Z,984.36
2022-12-14T08:10:35.755Z,984.43
2022-12-14T08:11:33.107Z,984.44
2022-12-14T08:12:32.067Z,984.40
2022-12-14T08:13:32.396Z,984.39
2022-12-14T08:14:32.049Z,984.39
2022-12-14T08:15:32.088Z,984.42
2022-12-14T08:16:32.118Z,984.37
2022-12-14T08:17:32.017Z,984.39
2022-12-14T08:18:32.004Z,984.37
2022-12-14T08:19:31.991Z,984.41
2022-12-14T08:20:31.990Z,984.40
2022-12-14T08:21:32.000Z,984.40
2022-12-14T08:22:31.984Z,984.34
2022-12-14T08:23:32.575Z,984.34
2022-12-14T08:24:31.936Z,984.35
2022-12-14T08:25:31.930Z,984.35
2022-12-14T08:26:35.840Z,984.32
2022-12-14T08:27:31.907Z,984.26
2022-12-14T08:28:31.894Z,984.33
2022-12-14T08:29:31.899Z,984.28
2022-12-14T08:30:31.873Z,984.28
2022-12-14T08:31:32.040Z,984.31
2022-12-14T08:32:34.440Z,984.33
2022-12-14T08:33:32.403Z,984.33
2022-12-14T08:34:31.829Z,984.30
2022-12-14T08:35:31.826Z,984.32
2022-12-14T08:36:31.804Z,984.30
2022-12-14T08:37:31.802Z,984.30
2022-12-14T08:38:31.807Z,984.29
2022-12-14T08:39:31.773Z,984.26
2022-12-14T08:40:31.769Z,984.25
2022-12-14T08:41:31.782Z,984.23
2022-12-14T08:42:31.744Z,984.24
2022-12-14T08:43:32.113Z,984.19
2022-12-14T08:44:31.718Z,984.22
2022-12-14T08:45:31.704Z,984.19
2022-12-14T08:46:31.815Z,984.16
2022-12-14T08:47:31.713Z,984.17
2022-12-14T08:48:31.684Z,984.18
2022-12-14T08:49:32.548Z,984.16
2022-12-14T08:50:31.654Z,984.21
2022-12-14T08:51:31.667Z,984.25
2022-12-14T08:52:31.636Z,984.20
2022-12-14T08:53:32.571Z,984.21
2022-12-14T08:54:31.636Z,984.24
2022-12-14T08:55:38.287Z,984.29
2022-12-14T08:56:32.612Z,984.28
2022-12-14T08:57:31.578Z,984.29
2022-12-14T08:58:31.576Z,984.29
2022-12-14T09:00:00.340Z,984.30
2022-12-14T09:00:32.660Z,984.30
2022-12-14T09:01:34.141Z,984.35
2022-12-14T09:02:31.659Z,984.24
2022-12-14T09:03:32.103Z,984.20
2022-12-14T09:04:31.513Z,984.26
2022-12-14T09:05:31.523Z,984.25
2022-12-14T09:06:31.503Z,984.22
2022-12-14T09:07:31.473Z,984.22
2022-12-14T09:08:31.464Z,984.23
2022-12-14T09:09:31.450Z,984.19
2022-12-14T09:10:31.446Z,984.19
2022-12-14T09:11:31.451Z,984.19
2022-12-14T09:12:31.417Z,984.23
2022-12-14T09:13:31.826Z,984.22
2022-12-14T09:14:31.420Z,984.22
2022-12-14T09:15:31.387Z,984.17
2022-12-14T09:16:31.422Z,984.21
2022-12-14T09:17:31.388Z,984.25
2022-12-14T09:18:31.876Z,984.22
2022-12-14T09:19:31.343Z,984.20
2022-12-14T09:20:31.334Z,984.19
2022-12-14T09:21:31.368Z,984.16
2022-12-14T09:22:31.320Z,984.15
2022-12-14T09:23:31.900Z,984.15
2022-12-14T09:24:31.299Z,984.15
2022-12-14T09:25:31.278Z,984.14
2022-12-14T09:26:31.276Z,984.17
2022-12-14T09:27:31.287Z,984.18
2022-12-14T09:28:31.289Z,984.16
2022-12-14T09:29:31.239Z,984.22
2022-12-14T09:30:31.234Z,984.23
2022-12-14T09:31:31.256Z,984.22
2022-12-14T09:32:31.207Z,984.20
2022-12-14T09:33:31.697Z,984.21
2022-12-14T09:34:31.183Z,984.23
2022-12-14T09:35:31.178Z,984.23
2022-12-14T09:36:31.160Z,984.28
2022-12-14T09:37:31.150Z,984.27
2022-12-14T09:38:31.170Z,984.20
2022-12-14T09:39:31.159Z,984.17
2022-12-14T09:40:31.152Z,984.19
2022-12-14T09:41:31.121Z,984.20
2022-12-14T09:42:31.096Z,984.16
2022-12-14T09:43:37.078Z,984.16
2022-12-14T09:44:32.094Z,984.14
2022-12-14T09:45:31.138Z,984.12
2022-12-14T09:46:31.173Z,984.09
2022-12-14T09:47:31.045Z,984.09
2022-12-14T09:48:31.762Z,984.09
2022-12-14T09:49:31.029Z,984.07
2022-12-14T09:50:31.021Z,984.04
2022-12-14T09:51:31.111Z,984.07
2022-12-14T09:52:31.021Z,984.07
2022-12-14T09:53:31.346Z,984.05
2022-12-14T09:54:30.966Z,984.08
2022-12-14T09:55:30.957Z,984.05
2022-12-14T09:56:30.971Z,983.98
2022-12-14T09:57:30.958Z,983.99
2022-12-14T09:58:31.384Z,983.97
2022-12-14T09:59:30.937Z,983.95
2022-12-14T10:00:30.899Z,983.93
2022-12-14T10:01:31.022Z,983.95
2022-12-14T10:02:32.291Z,983.94
2022-12-14T10:03:31.522Z,983.92
2022-12-14T10:04:30.905Z,983.92
2022-12-14T10:05:30.844Z,983.92
2022-12-14T10:06:30.867Z,983.85
2022-12-14T10:07:34.345Z,983.86
2022-12-14T10:08:31.297Z,983.83
2022-12-14T10:09:30.803Z,983.84
2022-12-14T10:10:30.813Z,983.80
2022-12-14T10:11:30.808Z,983.84
2022-12-14T10:12:34.228Z,983.80
2022-12-14T10:13:31.387Z,983.74
2022-12-14T10:14:30.761Z,983.80
2022-12-14T10:15:30.759Z,983.79
2022-12-14T10:16:30.800Z,983.77
2022-12-14T10:17:30.753Z,983.73
2022-12-14T10:19:31.765Z,983.75
2022-12-14T10:20:30.684Z,983.73
2022-12-14T10:21:30.678Z,983.81
2022-12-14T10:22:30.688Z,983.79
2022-12-14T10:23:30.654Z,983.81
2022-12-14T10:24:30.648Z,983.81
2022-12-14T10:25:30.633Z,983.83
2022-12-14T10:26:30.619Z,983.84
2022-12-14T10:27:38.118Z,983.80
2022-12-14T10:28:32.207Z,983.84
2022-12-14T10:29:30.589Z,983.79
2022-12-14T10:30:30.578Z,983.80
2022-12-14T10:31:30.630Z,983.80
2022-12-14T10:32:30.583Z,983.79
2022-12-14T10:33:30.558Z,983.82
2022-12-14T10:34:30.531Z,983.82
2022-12-14T10:35:30.523Z,983.79
2022-12-14T10:36:30.530Z,983.73
2022-12-14T10:37:30.507Z,983.76
2022-12-14T10:38:30.962Z,983.68
2022-12-14T10:39:30.477Z,983.68
2022-12-14T10:40:34.077Z,983.66
2022-12-14T10:41:30.457Z,983.65
2022-12-14T10:42:30.461Z,983.66
2022-12-14T10:43:30.432Z,983.59
2022-12-14T10:44:30.447Z,983.60
2022-12-14T10:45:40.394Z,983.59
2022-12-14T10:46:31.493Z,983.59
2022-12-14T10:47:30.392Z,983.60
2022-12-14T10:48:30.783Z,983.63
2022-12-14T10:49:30.376Z,983.62
2022-12-14T10:50:30.384Z,983.60
2022-12-14T10:51:30.349Z,983.61
2022-12-14T10:52:30.356Z,983.66
2022-12-14T10:53:31.690Z,983.64
2022-12-14T10:54:30.314Z,983.65
2022-12-14T10:55:30.305Z,983.66
2022-12-14T10:56:30.417Z,983.65
2022-12-14T10:57:30.420Z,983.63
2022-12-14T10:58:30.773Z,983.59
2022-12-14T10:59:38.562Z,983.60
2022-12-14T11:00:31.285Z,983.59
2022-12-14T11:01:30.417Z,983.62
2022-12-14T11:02:30.421Z,983.62
2022-12-14T11:03:30.320Z,983.58
2022-12-14T11:04:30.208Z,983.54
2022-12-14T11:05:36.004Z,983.53
2022-12-14T11:06:31.209Z,983.51
2022-12-14T11:07:30.335Z,983.54
2022-12-14T11:08:30.531Z,983.50
2022-12-14T11:09:30.151Z,983.50
2022-12-14T11:10:30.142Z,983.51
2022-12-14T11:11:30.227Z,983.46
2022-12-14T11:12:30.127Z,983.46
2022-12-14T11:13:30.103Z,983.43
2022-12-14T11:14:30.101Z,983.43
2022-12-14T11:15:30.084Z,983.38
2022-12-14T11:16:35.717Z,983.42
2022-12-14T11:17:31.320Z,983.44
2022-12-14T11:18:30.531Z,983.45
2022-12-14T11:19:30.043Z,983.46
2022-12-14T11:20:30.039Z,983.47
2022-12-14T11:21:30.024Z,983.47
2022-12-14T11:22:30.032Z,983.43
2022-12-14T11:23:30.003Z,983.44
2022-12-14T11:24:29.984Z,983.41
2022-12-14T11:25:29.979Z,983.37
2022-12-14T11:26:29.975Z,983.35
2022-12-14T11:27:29.981Z,983.37
2022-12-14T11:28:36.017Z,983.35
2022-12-14T11:29:31.013Z,983.30
2022-12-14T11:30:29.957Z,983.27
2022-12-14T11:31:29.953Z,983.26
2022-12-14T11:32:29.902Z,983.25
2022-12-14T11:33:29.894Z,983.24
2022-12-14T11:34:29.915Z,983.24
2022-12-14T11:35:29.872Z,983.28
2022-12-14T11:36:29.861Z,983.20
2022-12-14T11:37:29.850Z,983.21
2022-12-14T11:38:30.243Z,983.16
2022-12-14T11:39:29.828Z,983.20
2022-12-14T11:40:29.839Z,983.22
2022-12-14T11:41:29.813Z,983.16
2022-12-14T11:42:29.791Z,983.12
2022-12-14T11:43:29.785Z,983.09
2022-12-14T11:44:29.790Z,983.11
2022-12-14T11:45:29.762Z,983.11
2022-12-14T11:46:29.819Z,983.12
2022-12-14T11:47:29.734Z,983.16
2022-12-14T11:48:30.119Z,983.16
2022-12-14T11:49:29.742Z,983.13
2022-12-14T11:50:29.703Z,983.10
2022-12-14T11:51:29.702Z,983.14
2022-12-14T11:52:29.716Z,983.10
2022-12-14T11:53:29.677Z,983.11
2022-12-14T11:54:29.683Z,983.12
2022-12-14T11:55:29.668Z,983.11
2022-12-14T11:56:29.666Z,983.11
2022-12-14T11:57:29.666Z,983.14
2022-12-14T11:58:30.046Z,983.11
2022-12-14T11:59:29.610Z,983.15
2022-12-14T12:00:29.616Z,983.13
2022-12-14T12:01:29.663Z,983.09
2022-12-14T12:02:29.605Z,983.14
2022-12-14T12:03:29.618Z,983.12
2022-12-14T12:04:29.584Z,983.14
2022-12-14T12:05:29.564Z,983.12
2022-12-14T12:06:29.554Z,983.12
2022-12-14T12:07:29.557Z,983.11
2022-12-14T12:08:29.882Z,983.05
2022-12-14T12:09:29.498Z,983.08
2022-12-14T12:10:29.496Z,983.07
2022-12-14T12:11:29.479Z,983.09
2022-12-14T12:12:29.487Z,983.10
2022-12-14T12:13:29.464Z,983.11
2022-12-14T12:14:29.446Z,983.12
2022-12-14T12:15:29.498Z,983.12
2022-12-14T12:16:29.519Z,983.14
2022-12-14T12:17:29.415Z,983.14
2022-12-14T12:18:29.901Z,983.15
2022-12-14T12:19:29.391Z,983.11
2022-12-14T12:20:29.399Z,983.06
2022-12-14T12:21:29.370Z,983.05
2022-12-14T12:22:29.363Z,983.09
2022-12-14T12:23:29.717Z,983.05
2022-12-14T12:24:29.344Z,983.11
2022-12-14T12:25:35.187Z,983.05
2022-12-14T12:26:30.317Z,983.05
2022-12-14T12:27:29.305Z,983.01
2022-12-14T12:28:29.760Z,983.00
2022-12-14T12:29:29.288Z,982.99
2022-12-14T12:30:29.276Z,982.95